createdAt,value
2022-08-11T00:01:54.654Z,53.31
2022-08-11T00:04:25.570Z,53.15
2022-08-11T00:06:54.888Z,53.40
2022-08-11T00:09:32.267Z,54.17
2022-08-11T00:12:13.656Z,53.48
2022-08-11T00:14:40.901Z,54.96
2022-08-11T00:17:09.879Z,54.76
2022-08-11T00:20:14.102Z,55.37
2022-08-11T00:22:33.811Z,55.06
2022-08-11T00:25:10.012Z,54.62
2022-08-11T00:27:38.510Z,54.28
2022-08-11T00:30:07.148Z,54.70
2022-08-11T00:32:34.609Z,54.44
2022-08-11T00:35:55.089Z,54.98
2022-08-11T00:37:49.886Z,53.67
2022-08-11T00:40:43.206Z,55.92
2022-08-11T00:43:37.886Z,53.37
2022-08-11T00:46:28.395Z,53.50
2022-08-11T00:49:07.141Z,53.28
2022-08-11T00:51:59.678Z,51.61
2022-08-11T00:55:02.011Z,52.30
2022-08-11T00:57:46.564Z,52.05
2022-08-11T01:00:15.300Z,51.80
2022-08-11T01:03:10.995Z,51.38
2022-08-11T01:05:51.536Z,51.00
2022-08-11T01:08:34.621Z,52.31
2022-08-11T01:11:20.766Z,52.69
2022-08-11T01:14:12.200Z,53.66
2022-08-11T01:17:10.850Z,53.28
2022-08-11T01:20:46.666Z,53.49
2022-08-11T01:23:17.515Z,53.11
2022-08-11T01:26:18.180Z,53.36
2022-08-11T01:29:15.423Z,52.21
2022-08-11T01:31:44.936Z,52.88
2022-08-11T01:34:26.565Z,53.10
2022-08-11T01:37:18.327Z,53.44
2022-08-11T01:40:11.919Z,53.97
2022-08-11T01:43:16.817Z,54.09
2022-08-11T01:46:00.659Z,53.46
2022-08-11T01:48:48.937Z,54.62
2022-08-11T01:51:23.887Z,53.94
2022-08-11T01:54:11.949Z,55.04
2022-08-11T01:56:58.841Z,54.47
2022-08-11T01:59:29.688Z,54.81
2022-08-11T02:02:21.423Z,55.86
2022-08-11T02:04:48.117Z,54.40
2022-08-11T02:07:31.387Z,54.40
2022-08-11T02:10:36.578Z,54.28
2022-08-11T02:13:35.720Z,54.75
2022-08-11T02:16:27.221Z,54.67
2022-08-11T02:19:45.320Z,54.46
2022-08-11T02:22:53.394Z,56.04
2022-08-11T02:25:39.080Z,55.30
2022-08-11T02:28:40.118Z,55.95
2022-08-11T02:32:24.114Z,57.31
2022-08-11T02:34:39.275Z,56.74
2022-08-11T02:37:24.398Z,56.26
2022-08-11T02:40:10.722Z,56.16
2022-08-11T02:42:46.195Z,56.83
2022-08-11T02:45:28.895Z,58.00
2022-08-11T02:48:33.008Z,57.74
2022-08-11T02:51:12.732Z,58.31
2022-08-11T02:54:08.095Z,58.46
2022-08-11T02:56:47.230Z,57.87
2022-08-11T02:59:43.693Z,58.03
2022-08-11T03:02:33.074Z,56.24
2022-08-11T03:04:59.815Z,57.66
2022-08-11T03:08:04.193Z,58.63
2022-08-11T03:11:11.676Z,58.21
2022-08-11T03:14:11.982Z,58.08
2022-08-11T03:16:48.873Z,58.28
2022-08-11T03:19:18.574Z,58.47
2022-08-11T03:22:02.409Z,57.57
2022-08-11T03:24:53.912Z,57.57
2022-08-11T03:27:53.822Z,58.81
2022-08-11T03:30:35.321Z,59.13
2022-08-11T03:33:47.138Z,58.97
2022-08-11T03:37:16.731Z,57.57
2022-08-11T03:39:38.900Z,58.31
2022-08-11T03:42:43.847Z,58.21
2022-08-11T03:45:28.735Z,58.29
2022-08-11T03:48:19.959Z,58.10
2022-08-11T03:51:20.596Z,57.32
2022-08-11T03:54:06.609Z,56.34
2022-08-11T03:56:48.918Z,57.26
2022-08-11T03:59:56.499Z,56.85
2022-08-11T04:02:46.572Z,57.24
2022-08-11T04:05:31.258Z,56.69
2022-08-11T04:08:19.705Z,56.91
2022-08-11T04:10:46.360Z,57.05
2022-08-11T04:14:25.814Z,57.86
2022-08-11T04:17:34.714Z,58.89
2022-08-11T04:20:20.039Z,59.23
2022-08-11T04:23:07.878Z,59.07
2022-08-11T04:25:58.539Z,59.94
2022-08-11T04:28:50.215Z,60.16
2022-08-11T04:31:51.320Z,59.81
2022-08-11T04:34:24.794Z,59.87
2022-08-11T04:37:19.364Z,59.32
2022-08-11T04:40:23.543Z,59.20
2022-08-11T04:43:20.919Z,59.02
2022-08-11T04:46:10.732Z,59.38
2022-08-11T04:49:26.279Z,58.34
2022-08-11T04:52:37.590Z,59.43
2022-08-11T04:55:49.179Z,58.08
2022-08-11T04:58:43.600Z,58.59
2022-08-11T05:01:41.254Z,57.35
2022-08-11T05:04:45.298Z,57.31
2022-08-11T05:07:49.622Z,55.94
2022-08-11T05:10:26.022Z,56.41
2022-08-11T05:12:57.330Z,56.43
2022-08-11T05:16:12.136Z,57.04
2022-08-11T05:19:09.125Z,56.97
2022-08-11T05:21:55.327Z,57.12
2022-08-11T05:24:51.781Z,57.93
2022-08-11T05:27:38.492Z,57.69
2022-08-11T05:30:28.340Z,55.31
2022-08-11T05:33:31.476Z,56.95
2022-08-11T05:36:21.628Z,55.24
2022-08-11T05:39:16.311Z,56.13
2022-08-11T05:42:01.495Z,56.42
2022-08-11T05:44:47.594Z,53.99
2022-08-11T05:47:45.897Z,53.36
2022-08-11T05:50:33.349Z,52.60
2022-08-11T05:53:20.415Z,51.87
2022-08-11T05:56:06.169Z,51.55
2022-08-11T05:58:42.315Z,53.11
2022-08-11T06:01:11.167Z,54.14
2022-08-11T06:03:58.783Z,53.86
2022-08-11T06:06:26.444Z,53.29
2022-08-11T06:08:56.451Z,53.12
2022-08-11T06:11:43.870Z,52.41
2022-08-11T06:14:11.534Z,53.60
2022-08-11T06:16:38.295Z,53.43
2022-08-11T06:19:05.642Z,50.57
2022-08-11T06:21:34.704Z,52.06
2022-08-11T06:24:04.128Z,52.61
2022-08-11T06:26:31.465Z,49.87
2022-08-11T06:28:59.574Z,49.55
2022-08-11T06:31:26.327Z,52.44
2022-08-11T06:34:07.707Z,49.64
2022-08-11T06:36:50.963Z,49.25
2022-08-11T06:39:27.827Z,48.74
2022-08-11T06:42:07.293Z,48.79
2022-08-11T06:44:43.688Z,48.89
2022-08-11T06:47:12.281Z,47.64
2022-08-11T06:50:05.018Z,47.71
2022-08-11T06:52:35.805Z,47.43
2022-08-11T06:55:55.508Z,50.34
2022-08-11T06:58:17.348Z,48.93
2022-08-11T07:00:45.379Z,49.00
2022-08-11T07:03:13.753Z,47.96
2022-08-11T07:05:53.930Z,46.96
2022-08-11T07:08:54.427Z,46.54
2022-08-11T07:12:05.822Z,45.65
2022-08-11T07:14:51.430Z,46.60
2022-08-11T07:17:21.588Z,46.27
2022-08-11T07:20:12.036Z,46.09
2022-08-11T07:22:57.673Z,45.41
2022-08-11T07:25:43.433Z,44.64
2022-08-11T07:28:31.456Z,44.59
2022-08-11T07:31:01.748Z,44.80
2022-08-11T07:34:07.267Z,44.07
2022-08-11T07:36:29.964Z,46.13
2022-08-11T07:38:57.688Z,44.23
2022-08-11T07:41:25.268Z,44.38
2022-08-11T07:43:54.104Z,46.21
2022-08-11T07:46:39.842Z,43.46
2022-08-11T07:49:27.547Z,44.21
2022-08-11T07:52:13.381Z,46.74
2022-08-11T07:54:40.661Z,43.92
2022-08-11T07:57:58.494Z,42.87
2022-08-11T08:00:35.910Z,42.92
2022-08-11T08:03:25.240Z,40.75
2022-08-11T08:06:28.453Z,38.44
2022-08-11T08:09:16.268Z,39.07
2022-08-11T08:12:02.873Z,38.28
2022-08-11T08:14:49.666Z,37.47
2022-08-11T08:17:34.858Z,38.77
2022-08-11T08:20:11.153Z,37.32
2022-08-11T08:22:40.069Z,36.34
2022-08-11T08:25:08.557Z,36.64
2022-08-11T08:27:35.818Z,36.32
2022-08-11T08:30:23.698Z,36.09
2022-08-11T08:32:51.683Z,34.92
2022-08-11T08:35:19.247Z,34.69
2022-08-11T08:37:47.691Z,33.11
2022-08-11T08:40:14.870Z,33.99
2022-08-11T08:42:51.575Z,33.01
2022-08-11T08:45:18.640Z,33.19
2022-08-11T08:48:00.292Z,33.53
2022-08-11T08:50:49.312Z,33.91
2022-08-11T08:53:31.912Z,32.30
2022-08-11T08:56:00.292Z,32.29
2022-08-11T08:58:27.166Z,33.10
2022-08-11T09:00:55.017Z,34.97
2022-08-11T09:04:02.797Z,33.21
2022-08-11T09:06:09.659Z,31.59
2022-08-11T09:08:36.577Z,32.18
2022-08-11T09:11:23.090Z,30.82
2022-08-11T09:14:04.719Z,31.67
2022-08-11T09:16:34.248Z,31.54
2022-08-11T09:19:01.396Z,31.13
2022-08-11T09:21:47.997Z,31.65
2022-08-11T09:24:34.258Z,31.12
2022-08-11T09:27:06.032Z,30.14
2022-08-11T09:29:33.134Z,30.13
2022-08-11T09:32:00.122Z,30.89
2022-08-11T09:34:27.694Z,29.48
2022-08-11T09:37:54.152Z,29.32
2022-08-11T09:40:29.201Z,31.20
2022-08-11T09:43:20.499Z,29.06
2022-08-11T09:45:52.043Z,29.88
2022-08-11T09:48:20.797Z,28.98
2022-08-11T09:50:55.268Z,29.88
2022-08-11T09:53:36.827Z,29.58
2022-08-11T09:56:26.504Z,30.53
2022-08-11T09:58:57.156Z,28.26
2022-08-11T10:01:31.369Z,30.02
2022-08-11T10:04:19.644Z,28.23
2022-08-11T10:07:01.867Z,29.63
2022-08-11T10:09:49.515Z,29.65
2022-08-11T10:12:28.532Z,30.09
2022-08-11T10:15:17.221Z,29.64
2022-08-11T10:18:05.945Z,27.62
2022-08-11T10:20:35.173Z,29.98
2022-08-11T10:23:21.576Z,28.16
2022-08-11T10:26:06.923Z,29.44
2022-08-11T10:28:49.977Z,29.77
2022-08-11T10:31:45.183Z,30.22
2022-08-11T10:34:25.578Z,29.80
2022-08-11T10:36:55.353Z,28.69
2022-08-11T10:39:22.216Z,29.04
2022-08-11T10:42:12.237Z,27.95
2022-08-11T10:44:47.702Z,28.46
2022-08-11T10:47:34.351Z,29.44
2022-08-11T10:50:21.863Z,27.84
2022-08-11T10:53:08.662Z,27.68
2022-08-11T10:55:58.571Z,29.02
2022-08-11T10:58:44.832Z,29.85
2022-08-11T11:01:11.764Z,28.53
2022-08-11T11:03:38.697Z,27.50
2022-08-11T11:06:28.388Z,29.26
2022-08-11T11:09:04.212Z,27.62
2022-08-11T11:11:55.035Z,27.85
2022-08-11T11:14:46.058Z,28.43
2022-08-11T11:17:53.449Z,29.08
2022-08-11T11:20:36.765Z,30.69
2022-08-11T11:23:29.552Z,28.95
2022-08-11T11:26:11.768Z,28.63
2022-08-11T11:29:08.369Z,27.75
2022-08-11T11:31:59.705Z,28.70
2022-08-11T11:34:53.126Z,29.37
2022-08-11T11:37:22.603Z,29.73
2022-08-11T11:39:49.693Z,28.60
2022-08-11T11:42:17.268Z,28.03
2022-08-11T11:44:44.991Z,27.26
2022-08-11T11:47:12.870Z,29.59
2022-08-11T11:49:43.778Z,26.71
2022-08-11T11:52:15.215Z,26.71
2022-08-11T11:54:42.291Z,26.27
2022-08-11T11:57:27.863Z,26.75
2022-08-11T12:00:13.423Z,28.44
2022-08-11T12:02:40.783Z,26.64
2022-08-11T12:05:08.965Z,27.53
2022-08-11T12:07:58.719Z,26.81
2022-08-11T12:10:41.235Z,26.95
2022-08-11T12:13:26.560Z,26.90
2022-08-11T12:16:32.122Z,27.27
2022-08-11T12:18:41.437Z,27.47
2022-08-11T12:21:08.890Z,29.66
2022-08-11T12:23:55.069Z,26.75
2022-08-11T12:26:41.057Z,26.43
2022-08-11T12:29:10.225Z,26.10
2022-08-11T12:31:39.010Z,26.58
2022-08-11T12:34:13.052Z,27.85
2022-08-11T12:37:05.601Z,27.62
2022-08-11T12:40:16.784Z,25.80
2022-08-11T12:43:03.880Z,28.69
2022-08-11T12:45:31.571Z,26.73
2022-08-11T12:48:58.701Z,25.28
2022-08-11T12:52:13.814Z,25.83
2022-08-11T12:54:37.372Z,25.94
2022-08-11T12:57:36.473Z,27.65
2022-08-11T13:00:24.974Z,26.85
2022-08-11T13:03:10.612Z,27.05
2022-08-11T13:05:44.808Z,28.08
2022-08-11T13:08:15.110Z,27.73
2022-08-11T13:11:02.956Z,28.35
2022-08-11T13:13:52.587Z,27.24
2022-08-11T13:16:17.957Z,27.89
2022-08-11T13:18:53.745Z,28.39
2022-08-11T13:21:21.440Z,25.95
2022-08-11T13:24:01.233Z,27.46
2022-08-11T13:26:47.119Z,26.44
2022-08-11T13:29:23.055Z,25.97
2022-08-11T13:31:50.701Z,26.91
2022-08-11T13:34:18.465Z,27.21
2022-08-11T13:36:49.297Z,24.50
2022-08-11T13:39:16.530Z,26.02
2022-08-11T13:41:44.185Z,24.86
2022-08-11T13:44:15.873Z,27.45
2022-08-11T13:46:46.326Z,23.79
2022-08-11T13:49:16.912Z,23.38
2022-08-11T13:51:44.872Z,24.14
2022-08-11T13:54:20.230Z,23.12
2022-08-11T13:56:53.595Z,25.82
2022-08-11T13:59:24.059Z,25.33
2022-08-11T14:02:20.368Z,23.39
2022-08-11T14:04:59.034Z,23.39
2022-08-11T14:07:35.917Z,25.21
2022-08-11T14:10:03.944Z,25.25
2022-08-11T14:12:51.117Z,23.40
2022-08-11T14:15:38.501Z,24.04
2022-08-11T14:18:13.976Z,23.83
2022-08-11T14:21:01.241Z,24.14
2022-08-11T14:23:31.302Z,25.00
2022-08-11T14:26:17.465Z,24.36
2022-08-11T14:28:45.322Z,23.66
2022-08-11T14:31:16.306Z,25.30
2022-08-11T14:34:01.073Z,25.78
2022-08-11T14:36:35.058Z,24.96
2022-08-11T14:39:17.120Z,26.23
2022-08-11T14:42:10.067Z,26.07
2022-08-11T14:44:59.870Z,25.66
2022-08-11T14:47:27.940Z,24.54
2022-08-11T14:49:58.665Z,23.17
2022-08-11T14:52:38.416Z,25.57
2022-08-11T14:55:24.308Z,25.81
2022-08-11T14:57:55.615Z,24.64
2022-08-11T15:00:22.886Z,24.95
2022-08-11T15:03:08.692Z,24.75
2022-08-11T15:05:36.532Z,23.72
2022-08-11T15:08:04.787Z,25.17
2022-08-11T15:10:31.503Z,24.12
2022-08-11T15:12:58.153Z,24.56
2022-08-11T15:15:43.904Z,23.99
2022-08-11T15:18:16.193Z,24.24
2022-08-11T15:21:02.526Z,24.49
2022-08-11T15:23:48.775Z,23.56
2022-08-11T15:26:53.036Z,22.66
2022-08-11T15:29:41.233Z,22.04
2022-08-11T15:32:22.196Z,23.24
2022-08-11T15:35:17.445Z,24.81
2022-08-11T15:37:45.371Z,22.67
2022-08-11T15:40:46.471Z,22.79
2022-08-11T15:43:42.388Z,23.32
2022-08-11T15:46:18.515Z,23.31
2022-08-11T15:48:48.520Z,23.31
2022-08-11T15:51:33.447Z,24.66
2022-08-11T15:54:08.963Z,22.89
2022-08-11T15:56:41.612Z,23.11
2022-08-11T15:59:41.930Z,24.41
2022-08-11T16:02:32.309Z,25.73
2022-08-11T16:04:59.917Z,25.61
2022-08-11T16:07:28.508Z,23.80
2022-08-11T16:10:07.534Z,22.87
2022-08-11T16:12:41.090Z,22.25
2022-08-11T16:15:28.360Z,22.76
2022-08-11T16:18:02.368Z,23.25
2022-08-11T16:20:30.787Z,25.77
2022-08-11T16:23:01.766Z,23.86
2022-08-11T16:27:02.995Z,23.51
2022-08-11T16:28:20.746Z,25.64
2022-08-11T16:30:48.284Z,25.03
2022-08-11T16:33:48.703Z,21.82
2022-08-11T16:36:22.949Z,20.22
2022-08-11T16:38:49.721Z,21.80
2022-08-11T16:41:41.728Z,20.06
2022-08-11T16:44:32.513Z,21.62
2022-08-11T16:47:06.679Z,24.20
2022-08-11T16:49:36.160Z,25.58
2022-08-11T16:52:05.368Z,24.80
2022-08-11T16:54:36.927Z,25.10
2022-08-11T16:57:25.624Z,25.92
2022-08-11T16:59:57.947Z,26.03
2022-08-11T17:02:44.440Z,26.06
2022-08-11T17:05:33.408Z,26.64
2022-08-11T17:08:24.493Z,26.42
2022-08-11T17:11:15.959Z,27.51
2022-08-11T17:14:07.711Z,27.06
2022-08-11T17:16:41.378Z,26.09
2022-08-11T17:19:14.416Z,26.62
2022-08-11T17:22:03.445Z,25.93
2022-08-11T17:24:31.626Z,26.21
2022-08-11T17:26:59.405Z,26.33
2022-08-11T17:29:30.498Z,28.59
2022-08-11T17:32:16.040Z,29.00
2022-08-11T17:35:02.709Z,29.60
2022-08-11T17:37:33.097Z,26.90
2022-08-11T17:40:02.415Z,29.44
2022-08-11T17:42:48.816Z,28.73
2022-08-11T17:45:36.695Z,28.64
2022-08-11T17:48:23.488Z,28.23
2022-08-11T17:50:51.493Z,29.06
2022-08-11T17:53:38.158Z,29.89
2022-08-11T17:56:23.963Z,28.63
2022-08-11T17:59:11.355Z,30.08
2022-08-11T18:01:39.294Z,29.85
2022-08-11T18:04:10.378Z,29.22
2022-08-11T18:06:37.925Z,28.69
2022-08-11T18:09:35.811Z,29.07
2022-08-11T18:12:23.446Z,28.55
2022-08-11T18:15:10.479Z,29.73
2022-08-11T18:17:56.248Z,30.63
2022-08-11T18:20:42.363Z,30.90
2022-08-11T18:23:46.105Z,30.64
2022-08-11T18:26:34.821Z,31.44
2022-08-11T18:29:20.605Z,32.16
2022-08-11T18:32:07.374Z,31.82
2022-08-11T18:34:56.746Z,30.35
2022-08-11T18:37:46.309Z,31.33
2022-08-11T18:40:41.186Z,31.30
2022-08-11T18:43:29.764Z,32.00
2022-08-11T18:46:21.188Z,32.60
2022-08-11T18:49:15.678Z,34.24
2022-08-11T18:52:05.518Z,32.87
2022-08-11T18:54:53.321Z,34.79
2022-08-11T18:57:49.931Z,33.83
2022-08-11T19:00:41.243Z,34.60
2022-08-11T19:03:30.087Z,33.49
2022-08-11T19:06:38.931Z,49.55
2022-08-11T19:09:27.760Z,44.03
2022-08-11T19:12:15.108Z,42.11
2022-08-11T19:15:00.957Z,47.20
2022-08-11T19:17:49.011Z,44.63
2022-08-11T19:20:40.186Z,43.22
2022-08-11T19:23:35.085Z,42.51
2022-08-11T19:26:22.681Z,37.68
2022-08-11T19:29:09.168Z,41.96
2022-08-11T19:32:18.623Z,38.12
2022-08-11T19:35:07.319Z,37.49
2022-08-11T19:37:53.644Z,37.29
2022-08-11T19:40:39.889Z,36.56
2022-08-11T19:43:26.460Z,40.66
2022-08-11T19:46:21.767Z,41.32
2022-08-11T19:49:10.212Z,35.96
2022-08-11T19:51:56.316Z,37.23
2022-08-11T19:54:46.946Z,35.22
2022-08-11T19:57:38.705Z,37.75
2022-08-11T20:00:35.899Z,35.60
2022-08-11T20:03:24.993Z,36.15
2022-08-11T20:06:10.685Z,37.50
2022-08-11T20:08:59.384Z,41.47
2022-08-11T20:11:49.101Z,44.16
2022-08-11T20:14:35.508Z,47.95
2022-08-11T20:17:22.317Z,48.94
2022-08-11T20:20:08.023Z,47.06
2022-08-11T20:22:55.854Z,48.02
2022-08-11T20:25:43.031Z,49.25
2022-08-11T20:28:29.846Z,50.46
2022-08-11T20:31:15.711Z,49.17
2022-08-11T20:34:01.504Z,47.88
2022-08-11T20:36:54.051Z,48.02
2022-08-11T20:39:40.992Z,50.80
2022-08-11T20:42:30.253Z,42.77
2022-08-11T20:45:17.072Z,49.36
2022-08-11T20:48:08.947Z,49.59
2022-08-11T20:51:01.341Z,51.12
2022-08-11T20:53:57.590Z,49.56
2022-08-11T20:56:46.731Z,46.68
2022-08-11T20:59:38.316Z,46.52
2022-08-11T21:02:30.074Z,44.05
2022-08-11T21:05:15.809Z,38.77
2022-08-11T21:08:08.795Z,37.95
2022-08-11T21:10:59.372Z,38.46
2022-08-11T21:13:48.007Z,38.13
2022-08-11T21:16:42.839Z,36.93
2022-08-11T21:20:06.615Z,36.36
2022-08-11T21:23:24.288Z,36.52
2022-08-11T21:26:14.548Z,36.78
2022-08-11T21:29:01.172Z,42.32
2022-08-11T21:31:49.372Z,43.21
2022-08-11T21:34:38.106Z,44.49
2022-08-11T21:37:23.496Z,47.39
2022-08-11T21:40:13.558Z,46.83
2022-08-11T21:43:02.645Z,45.89
2022-08-11T21:45:48.934Z,46.51
2022-08-11T21:48:34.661Z,49.62
2022-08-11T21:51:19.829Z,47.27
2022-08-11T21:54:05.576Z,47.46
2022-08-11T21:56:51.850Z,47.65
2022-08-11T21:59:46.900Z,46.79
2022-08-11T22:02:32.444Z,49.46
2022-08-11T22:05:17.707Z,48.80
2022-08-11T22:08:02.926Z,46.11
2022-08-11T22:10:48.369Z,47.36
2022-08-11T22:13:33.579Z,47.70
2022-08-11T22:16:18.818Z,47.52
2022-08-11T22:19:05.733Z,47.30
2022-08-11T22:22:02.692Z,47.42
2022-08-11T22:25:02.037Z,46.81
2022-08-11T22:28:06.482Z,47.71
2022-08-11T22:30:51.677Z,47.40
2022-08-11T22:33:41.429Z,47.91
2022-08-11T22:36:43.911Z,47.50
2022-08-11T22:39:30.333Z,48.04
2022-08-11T22:42:33.586Z,48.27
2022-08-11T22:45:19.764Z,47.04
2022-08-11T22:48:06.335Z,45.97
2022-08-11T22:50:52.439Z,45.67
2022-08-11T22:53:57.557Z,44.90
2022-08-11T22:56:43.891Z,45.29
2022-08-11T22:59:29.149Z,45.18
2022-08-11T23:02:14.658Z,45.99
2022-08-11T23:04:59.832Z,44.67
2022-08-11T23:07:49.817Z,45.67
2022-08-11T23:10:38.693Z,48.72
2022-08-11T23:13:25.002Z,47.39
2022-08-11T23:16:11.569Z,46.88
2022-08-11T23:18:57.487Z,47.69
2022-08-11T23:21:46.536Z,47.03
2022-08-11T23:24:31.804Z,46.87
2022-08-11T23:27:18.685Z,47.91
2022-08-11T23:30:04.770Z,47.46
2022-08-11T23:32:50.084Z,49.62
2022-08-11T23:35:38.679Z,47.62
2022-08-11T23:38:25.989Z,47.91
2022-08-11T23:41:11.580Z,45.30
2022-08-11T23:43:56.948Z,45.69
2022-08-11T23:46:44.191Z,44.92
2022-08-11T23:49:29.700Z,46.09
2022-08-11T23:52:15.521Z,45.45
2022-08-11T23:55:00.665Z,45.36
2022-08-11T23:57:48.973Z,45.33
